sensor_id;sensor_type;location;lat;lon;timestamp;P1;durP1;ratioP1;P2;durP2;ratioP2
25073;SDS011;13066;52.042;5.648;2022-09-01T00:09:16;6.75;;;1.40;;
25073;SDS011;13066;52.042;5.648;2022-09-01T00:15:59;3.28;;;1.15;;
25073;SDS011;13066;52.042;5.648;2022-09-01T00:18:30;8.18;;;1.40;;
25073;SDS011;13066;52.042;5.648;2022-09-01T00:20:58;3.53;;;1.27;;
25073;SDS011;13066;52.042;5.648;2022-09-01T00:23:32;6.05;;;1.13;;
25073;SDS011;13066;52.042;5.648;2022-09-01T00:33:38;2.22;;;1.17;;
25073;SDS011;13066;52.042;5.648;2022-09-01T00:36:33;4.68;;;1.60;;
25073;SDS011;13066;52.042;5.648;2022-09-01T01:02:07;4.10;;;1.52;;
25073;SDS011;13066;52.042;5.648;2022-09-01T01:04:41;6.18;;;1.85;;
25073;SDS011;13066;52.042;5.648;2022-09-01T01:14:29;2.08;;;1.33;;
25073;SDS011;13066;52.042;5.648;2022-09-01T01:28:17;2.72;;;1.30;;
25073;SDS011;13066;52.042;5.648;2022-09-01T01:31:44;2.97;;;1.60;;
25073;SDS011;13066;52.042;5.648;2022-09-01T01:34:32;5.55;;;1.65;;
25073;SDS011;13066;52.042;5.648;2022-09-01T01:37:25;2.83;;;1.40;;
25073;SDS011;13066;52.042;5.648;2022-09-01T01:40:10;2.78;;;1.67;;
25073;SDS011;13066;52.042;5.648;2022-09-01T01:42:50;3.55;;;1.50;;
25073;SDS011;13066;52.042;5.648;2022-09-01T01:45:27;4.07;;;1.60;;
25073;SDS011;13066;52.042;5.648;2022-09-01T01:47:58;1.85;;;1.45;;
25073;SDS011;13066;52.042;5.648;2022-09-01T01:50:31;6.32;;;1.60;;
25073;SDS011;13066;52.042;5.648;2022-09-01T01:53:02;3.55;;;1.23;;
25073;SDS011;13066;52.042;5.648;2022-09-01T01:55:36;1.92;;;1.33;;
25073;SDS011;13066;52.042;5.648;2022-09-01T01:58:07;2.45;;;1.55;;
25073;SDS011;13066;52.042;5.648;2022-09-01T02:00:40;3.55;;;1.85;;
25073;SDS011;13066;52.042;5.648;2022-09-01T02:03:30;3.33;;;1.50;;
25073;SDS011;13066;52.042;5.648;2022-09-01T02:06:04;2.70;;;1.27;;
25073;SDS011;13066;52.042;5.648;2022-09-01T02:08:35;3.83;;;1.58;;
25073;SDS011;13066;52.042;5.648;2022-09-01T02:11:05;5.90;;;1.90;;
25073;SDS011;13066;52.042;5.648;2022-09-01T02:13:40;3.92;;;1.40;;
25073;SDS011;13066;52.042;5.648;2022-09-01T02:16:11;9.40;;;1.75;;
25073;SDS011;13066;52.042;5.648;2022-09-01T02:18:41;5.38;;;1.55;;
25073;SDS011;13066;52.042;5.648;2022-09-01T02:21:14;3.22;;;1.70;;
25073;SDS011;13066;52.042;5.648;2022-09-01T02:23:46;5.28;;;1.90;;
25073;SDS011;13066;52.042;5.648;2022-09-01T02:26:15;1.50;;;1.25;;
25073;SDS011;13066;52.042;5.648;2022-09-01T02:28:45;4.75;;;1.48;;
25073;SDS011;13066;52.042;5.648;2022-09-01T02:31:22;2.10;;;1.20;;
25073;SDS011;13066;52.042;5.648;2022-09-01T02:34:06;3.63;;;1.30;;
25073;SDS011;13066;52.042;5.648;2022-09-01T02:36:39;3.63;;;1.60;;
25073;SDS011;13066;52.042;5.648;2022-09-01T02:39:09;6.03;;;1.50;;
25073;SDS011;13066;52.042;5.648;2022-09-01T02:41:40;3.53;;;1.65;;
25073;SDS011;13066;52.042;5.648;2022-09-01T02:44:11;3.42;;;1.90;;
25073;SDS011;13066;52.042;5.648;2022-09-01T02:46:41;3.05;;;1.50;;
25073;SDS011;13066;52.042;5.648;2022-09-01T02:49:12;2.47;;;1.20;;
25073;SDS011;13066;52.042;5.648;2022-09-01T02:51:46;3.95;;;1.30;;
25073;SDS011;13066;52.042;5.648;2022-09-01T02:54:19;3.25;;;1.42;;
25073;SDS011;13066;52.042;5.648;2022-09-01T02:56:57;2.92;;;1.67;;
25073;SDS011;13066;52.042;5.648;2022-09-01T02:59:26;3.60;;;1.63;;
25073;SDS011;13066;52.042;5.648;2022-09-01T03:01:57;5.35;;;1.40;;
25073;SDS011;13066;52.042;5.648;2022-09-01T03:04:25;3.70;;;1.60;;
25073;SDS011;13066;52.042;5.648;2022-09-01T03:07:00;3.33;;;1.42;;
25073;SDS011;13066;52.042;5.648;2022-09-01T03:09:29;3.47;;;1.60;;
25073;SDS011;13066;52.042;5.648;2022-09-01T03:11:58;1.60;;;1.40;;
25073;SDS011;13066;52.042;5.648;2022-09-01T03:14:27;3.58;;;1.40;;
25073;SDS011;13066;52.042;5.648;2022-09-01T03:16:56;3.47;;;1.75;;
25073;SDS011;13066;52.042;5.648;2022-09-01T03:19:25;4.57;;;1.85;;
25073;SDS011;13066;52.042;5.648;2022-09-01T03:22:02;1.70;;;1.30;;
25073;SDS011;13066;52.042;5.648;2022-09-01T03:24:30;4.55;;;1.75;;
25073;SDS011;13066;52.042;5.648;2022-09-01T03:27:15;2.38;;;1.55;;
25073;SDS011;13066;52.042;5.648;2022-09-01T03:29:43;3.03;;;1.65;;
25073;SDS011;13066;52.042;5.648;2022-09-01T03:32:12;3.10;;;1.50;;
25073;SDS011;13066;52.042;5.648;2022-09-01T03:34:40;3.80;;;1.45;;
25073;SDS011;13066;52.042;5.648;2022-09-01T03:37:08;4.70;;;1.80;;
25073;SDS011;13066;52.042;5.648;2022-09-01T03:39:37;1.52;;;1.20;;
25073;SDS011;13066;52.042;5.648;2022-09-01T03:42:15;4.15;;;1.40;;
25073;SDS011;13066;52.042;5.648;2022-09-01T03:44:51;4.15;;;1.38;;
25073;SDS011;13066;52.042;5.648;2022-09-01T03:47:24;1.98;;;1.48;;
25073;SDS011;13066;52.042;5.648;2022-09-01T03:49:55;5.95;;;1.50;;
25073;SDS011;13066;52.042;5.648;2022-09-01T03:52:25;6.40;;;1.42;;
25073;SDS011;13066;52.042;5.648;2022-09-01T03:54:53;4.72;;;1.60;;
25073;SDS011;13066;52.042;5.648;2022-09-01T03:57:21;3.78;;;1.38;;
25073;SDS011;13066;52.042;5.648;2022-09-01T04:00:03;3.17;;;1.40;;
25073;SDS011;13066;52.042;5.648;2022-09-01T04:02:57;5.30;;;1.55;;
25073;SDS011;13066;52.042;5.648;2022-09-01T04:08:03;2.13;;;1.30;;
25073;SDS011;13066;52.042;5.648;2022-09-01T04:10:34;2.28;;;1.45;;
25073;SDS011;13066;52.042;5.648;2022-09-01T04:13:05;2.30;;;1.45;;
25073;SDS011;13066;52.042;5.648;2022-09-01T04:15:38;3.13;;;1.60;;
25073;SDS011;13066;52.042;5.648;2022-09-01T04:18:08;1.58;;;1.13;;
25073;SDS011;13066;52.042;5.648;2022-09-01T04:20:36;7.22;;;1.30;;
25073;SDS011;13066;52.042;5.648;2022-09-01T04:23:28;3.25;;;1.77;;
25073;SDS011;13066;52.042;5.648;2022-09-01T04:28:36;3.88;;;1.30;;
25073;SDS011;13066;52.042;5.648;2022-09-01T04:31:06;3.08;;;1.60;;
25073;SDS011;13066;52.042;5.648;2022-09-01T04:33:53;6.93;;;1.65;;
25073;SDS011;13066;52.042;5.648;2022-09-01T04:36:22;1.92;;;1.40;;
25073;SDS011;13066;52.042;5.648;2022-09-01T04:39:00;3.60;;;1.48;;
25073;SDS011;13066;52.042;5.648;2022-09-01T04:41:35;2.70;;;1.40;;
25073;SDS011;13066;52.042;5.648;2022-09-01T04:44:05;3.17;;;1.40;;
25073;SDS011;13066;52.042;5.648;2022-09-01T04:46:42;1.65;;;1.25;;
25073;SDS011;13066;52.042;5.648;2022-09-01T04:49:25;5.70;;;1.45;;
25073;SDS011;13066;52.042;5.648;2022-09-01T04:51:58;6.47;;;1.38;;
25073;SDS011;13066;52.042;5.648;2022-09-01T04:54:30;2.95;;;1.58;;
25073;SDS011;13066;52.042;5.648;2022-09-01T04:57:00;3.58;;;1.30;;
25073;SDS011;13066;52.042;5.648;2022-09-01T04:59:30;6.13;;;1.40;;
25073;SDS011;13066;52.042;5.648;2022-09-01T05:01:58;4.75;;;1.52;;
25073;SDS011;13066;52.042;5.648;2022-09-01T05:04:30;10.93;;;1.88;;
25073;SDS011;13066;52.042;5.648;2022-09-01T05:07:08;1.88;;;1.50;;
25073;SDS011;13066;52.042;5.648;2022-09-01T05:09:36;1.45;;;1.20;;
25073;SDS011;13066;52.042;5.648;2022-09-01T05:12:09;2.92;;;1.80;;
25073;SDS011;13066;52.042;5.648;2022-09-01T05:14:41;4.13;;;1.40;;
25073;SDS011;13066;52.042;5.648;2022-09-01T05:17:12;5.97;;;1.90;;
25073;SDS011;13066;52.042;5.648;2022-09-01T05:19:44;4.68;;;1.27;;
25073;SDS011;13066;52.042;5.648;2022-09-01T05:22:16;2.85;;;2.00;;
25073;SDS011;13066;52.042;5.648;2022-09-01T05:24:48;3.53;;;1.42;;
25073;SDS011;13066;52.042;5.648;2022-09-01T05:27:21;1.40;;;1.30;;
25073;SDS011;13066;52.042;5.648;2022-09-01T05:29:49;3.05;;;1.50;;
25073;SDS011;13066;52.042;5.648;2022-09-01T05:32:21;1.83;;;1.40;;
25073;SDS011;13066;52.042;5.648;2022-09-01T05:34:52;2.72;;;1.42;;
25073;SDS011;13066;52.042;5.648;2022-09-01T05:37:22;4.63;;;1.35;;
25073;SDS011;13066;52.042;5.648;2022-09-01T05:39:54;5.95;;;1.40;;
25073;SDS011;13066;52.042;5.648;2022-09-01T05:42:23;5.78;;;1.70;;
25073;SDS011;13066;52.042;5.648;2022-09-01T05:44:52;7.03;;;1.52;;
25073;SDS011;13066;52.042;5.648;2022-09-01T05:47:20;4.90;;;1.95;;
25073;SDS011;13066;52.042;5.648;2022-09-01T05:50:04;2.45;;;1.35;;
25073;SDS011;13066;52.042;5.648;2022-09-01T05:52:39;1.77;;;1.33;;
25073;SDS011;13066;52.042;5.648;2022-09-01T05:55:16;2.97;;;1.45;;
25073;SDS011;13066;52.042;5.648;2022-09-01T05:57:44;4.20;;;1.30;;
25073;SDS011;13066;52.042;5.648;2022-09-01T06:00:14;3.35;;;1.55;;
25073;SDS011;13066;52.042;5.648;2022-09-01T06:02:43;4.93;;;1.30;;
25073;SDS011;13066;52.042;5.648;2022-09-01T06:05:13;2.05;;;1.40;;
25073;SDS011;13066;52.042;5.648;2022-09-01T06:07:41;2.40;;;1.70;;
25073;SDS011;13066;52.042;5.648;2022-09-01T06:10:09;2.20;;;1.45;;
25073;SDS011;13066;52.042;5.648;2022-09-01T06:12:48;3.58;;;1.25;;
25073;SDS011;13066;52.042;5.648;2022-09-01T06:15:22;4.75;;;1.50;;
25073;SDS011;13066;52.042;5.648;2022-09-01T06:17:52;6.40;;;1.58;;
25073;SDS011;13066;52.042;5.648;2022-09-01T06:23:04;2.63;;;1.30;;
25073;SDS011;13066;52.042;5.648;2022-09-01T06:25:35;3.70;;;1.60;;
25073;SDS011;13066;52.042;5.648;2022-09-01T06:28:05;4.20;;;1.30;;
25073;SDS011;13066;52.042;5.648;2022-09-01T06:30:36;5.18;;;1.90;;
25073;SDS011;13066;52.042;5.648;2022-09-01T06:33:12;6.78;;;1.80;;
25073;SDS011;13066;52.042;5.648;2022-09-01T06:35:46;3.30;;;1.40;;
25073;SDS011;13066;52.042;5.648;2022-09-01T06:38:14;8.95;;;1.25;;
25073;SDS011;13066;52.042;5.648;2022-09-01T06:40:42;6.47;;;1.70;;
25073;SDS011;13066;52.042;5.648;2022-09-01T06:43:11;4.32;;;1.58;;
25073;SDS011;13066;52.042;5.648;2022-09-01T06:45:42;5.75;;;1.33;;
25073;SDS011;13066;52.042;5.648;2022-09-01T06:48:16;3.08;;;1.60;;
25073;SDS011;13066;52.042;5.648;2022-09-01T06:50:47;2.03;;;1.10;;
25073;SDS011;13066;52.042;5.648;2022-09-01T06:53:35;2.67;;;1.50;;
25073;SDS011;13066;52.042;5.648;2022-09-01T06:56:14;3.10;;;1.40;;
25073;SDS011;13066;52.042;5.648;2022-09-01T06:58:44;7.18;;;1.48;;
25073;SDS011;13066;52.042;5.648;2022-09-01T07:01:16;6.93;;;1.20;;
25073;SDS011;13066;52.042;5.648;2022-09-01T07:03:47;3.78;;;1.20;;
25073;SDS011;13066;52.042;5.648;2022-09-01T07:06:19;1.80;;;1.08;;
25073;SDS011;13066;52.042;5.648;2022-09-01T07:09:10;1.80;;;1.13;;
25073;SDS011;13066;52.042;5.648;2022-09-01T07:11:58;1.30;;;1.00;;
25073;SDS011;13066;52.042;5.648;2022-09-01T07:14:48;3.17;;;1.23;;
25073;SDS011;13066;52.042;5.648;2022-09-01T07:17:39;1.63;;;1.13;;
25073;SDS011;13066;52.042;5.648;2022-09-01T07:20:08;2.65;;;1.13;;
25073;SDS011;13066;52.042;5.648;2022-09-01T07:22:55;4.25;;;0.88;;
25073;SDS011;13066;52.042;5.648;2022-09-01T07:25:29;2.95;;;0.95;;
25073;SDS011;13066;52.042;5.648;2022-09-01T07:28:21;3.60;;;1.10;;
25073;SDS011;13066;52.042;5.648;2022-09-01T07:31:01;2.03;;;1.00;;
25073;SDS011;13066;52.042;5.648;2022-09-01T07:33:51;3.42;;;1.08;;
25073;SDS011;13066;52.042;5.648;2022-09-01T07:36:42;1.45;;;1.10;;
25073;SDS011;13066;52.042;5.648;2022-09-01T07:39:32;7.97;;;1.38;;
25073;SDS011;13066;52.042;5.648;2022-09-01T07:42:17;10.40;;;1.30;;
25073;SDS011;13066;52.042;5.648;2022-09-01T07:45:07;5.28;;;1.00;;
25073;SDS011;13066;52.042;5.648;2022-09-01T07:47:53;1.67;;;1.00;;
25073;SDS011;13066;52.042;5.648;2022-09-01T07:50:21;3.60;;;1.30;;
25073;SDS011;13066;52.042;5.648;2022-09-01T07:53:14;8.73;;;1.60;;
25073;SDS011;13066;52.042;5.648;2022-09-01T07:55:49;3.10;;;1.25;;
25073;SDS011;13066;52.042;5.648;2022-09-01T07:58:20;3.17;;;1.10;;
25073;SDS011;13066;52.042;5.648;2022-09-01T08:00:50;1.98;;;1.00;;
25073;SDS011;13066;52.042;5.648;2022-09-01T08:03:20;1.88;;;1.00;;
25073;SDS011;13066;52.042;5.648;2022-09-01T08:05:51;2.42;;;0.98;;
25073;SDS011;13066;52.042;5.648;2022-09-01T08:08:23;5.60;;;1.52;;
25073;SDS011;13066;52.042;5.648;2022-09-01T08:10:56;5.00;;;1.25;;
25073;SDS011;13066;52.042;5.648;2022-09-01T08:13:31;11.07;;;1.40;;
25073;SDS011;13066;52.042;5.648;2022-09-01T08:16:14;5.57;;;1.38;;
25073;SDS011;13066;52.042;5.648;2022-09-01T08:18:43;5.38;;;1.48;;
25073;SDS011;13066;52.042;5.648;2022-09-01T08:21:14;4.15;;;1.33;;
25073;SDS011;13066;52.042;5.648;2022-09-01T08:23:44;1.58;;;0.65;;
25073;SDS011;13066;52.042;5.648;2022-09-01T08:26:15;6.00;;;0.95;;
25073;SDS011;13066;52.042;5.648;2022-09-01T08:28:48;1.27;;;0.88;;
25073;SDS011;13066;52.042;5.648;2022-09-01T08:31:23;2.83;;;1.00;;
25073;SDS011;13066;52.042;5.648;2022-09-01T08:33:56;5.22;;;1.25;;
25073;SDS011;13066;52.042;5.648;2022-09-01T08:36:25;2.00;;;0.98;;
25073;SDS011;13066;52.042;5.648;2022-09-01T08:38:53;1.60;;;0.90;;
25073;SDS011;13066;52.042;5.648;2022-09-01T08:41:25;3.08;;;1.02;;
25073;SDS011;13066;52.042;5.648;2022-09-01T08:44:07;2.78;;;0.90;;
25073;SDS011;13066;52.042;5.648;2022-09-01T08:46:51;1.10;;;0.70;;
25073;SDS011;13066;52.042;5.648;2022-09-01T08:49:23;3.03;;;0.88;;
25073;SDS011;13066;52.042;5.648;2022-09-01T08:51:55;2.25;;;0.98;;
25073;SDS011;13066;52.042;5.648;2022-09-01T08:54:28;5.25;;;1.00;;
25073;SDS011;13066;52.042;5.648;2022-09-01T08:57:08;2.53;;;1.08;;
25073;SDS011;13066;52.042;5.648;2022-09-01T08:59:41;8.07;;;0.95;;
25073;SDS011;13066;52.042;5.648;2022-09-01T09:02:20;2.35;;;1.02;;
25073;SDS011;13066;52.042;5.648;2022-09-01T09:04:58;1.63;;;0.80;;
25073;SDS011;13066;52.042;5.648;2022-09-01T09:07:55;5.00;;;0.80;;
25073;SDS011;13066;52.042;5.648;2022-09-01T09:10:37;1.52;;;0.70;;
25073;SDS011;13066;52.042;5.648;2022-09-01T09:13:31;4.80;;;1.00;;
25073;SDS011;13066;52.042;5.648;2022-09-01T09:16:07;2.25;;;0.98;;
25073;SDS011;13066;52.042;5.648;2022-09-01T09:18:39;2.38;;;0.70;;
25073;SDS011;13066;52.042;5.648;2022-09-01T09:21:31;1.90;;;0.90;;
25073;SDS011;13066;52.042;5.648;2022-09-01T09:24:07;5.10;;;0.90;;
25073;SDS011;13066;52.042;5.648;2022-09-01T09:26:47;5.05;;;1.00;;
25073;SDS011;13066;52.042;5.648;2022-09-01T09:29:17;4.68;;;0.98;;
25073;SDS011;13066;52.042;5.648;2022-09-01T09:31:45;1.60;;;0.90;;
25073;SDS011;13066;52.042;5.648;2022-09-01T09:34:17;3.10;;;0.73;;
25073;SDS011;13066;52.042;5.648;2022-09-01T09:37:16;18.38;;;0.93;;
25073;SDS011;13066;52.042;5.648;2022-09-01T09:40:08;7.88;;;1.00;;
25073;SDS011;13066;52.042;5.648;2022-09-01T09:45:33;6.95;;;0.80;;
25073;SDS011;13066;52.042;5.648;2022-09-01T09:48:05;1.05;;;0.95;;
25073;SDS011;13066;52.042;5.648;2022-09-01T09:50:54;2.15;;;0.70;;
25073;SDS011;13066;52.042;5.648;2022-09-01T09:55:59;4.28;;;0.68;;
25073;SDS011;13066;52.042;5.648;2022-09-01T09:58:34;6.03;;;0.82;;
25073;SDS011;13066;52.042;5.648;2022-09-01T10:01:09;1.95;;;0.77;;
25073;SDS011;13066;52.042;5.648;2022-09-01T10:03:43;0.98;;;0.88;;
25073;SDS011;13066;52.042;5.648;2022-09-01T10:06:28;2.08;;;0.80;;
25073;SDS011;13066;52.042;5.648;2022-09-01T10:08:58;4.43;;;1.02;;
25073;SDS011;13066;52.042;5.648;2022-09-01T10:11:29;0.93;;;0.65;;
25073;SDS011;13066;52.042;5.648;2022-09-01T10:14:16;4.50;;;0.70;;
25073;SDS011;13066;52.042;5.648;2022-09-01T10:17:10;1.25;;;0.70;;
25073;SDS011;13066;52.042;5.648;2022-09-01T10:19:42;4.65;;;1.00;;
25073;SDS011;13066;52.042;5.648;2022-09-01T10:22:21;2.55;;;1.20;;
25073;SDS011;13066;52.042;5.648;2022-09-01T10:24:53;5.10;;;1.05;;
25073;SDS011;13066;52.042;5.648;2022-09-01T10:27:27;3.08;;;0.82;;
25073;SDS011;13066;52.042;5.648;2022-09-01T10:30:04;3.00;;;0.73;;
25073;SDS011;13066;52.042;5.648;2022-09-01T10:32:41;4.22;;;0.80;;
25073;SDS011;13066;52.042;5.648;2022-09-01T10:35:21;2.38;;;0.70;;
25073;SDS011;13066;52.042;5.648;2022-09-01T10:37:55;1.40;;;0.88;;
25073;SDS011;13066;52.042;5.648;2022-09-01T10:40:36;1.13;;;0.75;;
25073;SDS011;13066;52.042;5.648;2022-09-01T10:43:31;2.45;;;0.70;;
25073;SDS011;13066;52.042;5.648;2022-09-01T10:55:23;2.72;;;1.05;;
25073;SDS011;13066;52.042;5.648;2022-09-01T10:57:59;2.67;;;0.60;;
25073;SDS011;13066;52.042;5.648;2022-09-01T11:06:32;4.68;;;0.73;;
25073;SDS011;13066;52.042;5.648;2022-09-01T11:09:39;3.50;;;0.75;;
25073;SDS011;13066;52.042;5.648;2022-09-01T11:12:20;1.30;;;0.90;;
25073;SDS011;13066;52.042;5.648;2022-09-01T11:18:00;2.33;;;0.70;;
25073;SDS011;13066;52.042;5.648;2022-09-01T11:20:35;3.78;;;0.77;;
25073;SDS011;13066;52.042;5.648;2022-09-01T11:23:09;1.30;;;0.70;;
25073;SDS011;13066;52.042;5.648;2022-09-01T11:25:42;2.15;;;0.80;;
25073;SDS011;13066;52.042;5.648;2022-09-01T11:34:08;3.85;;;0.88;;
25073;SDS011;13066;52.042;5.648;2022-09-01T11:36:46;4.72;;;0.60;;
25073;SDS011;13066;52.042;5.648;2022-09-01T11:39:32;5.35;;;0.70;;
25073;SDS011;13066;52.042;5.648;2022-09-01T11:42:15;4.05;;;0.75;;
25073;SDS011;13066;52.042;5.648;2022-09-01T11:44:50;1.63;;;0.88;;
25073;SDS011;13066;52.042;5.648;2022-09-01T11:47:24;4.07;;;0.73;;
25073;SDS011;13066;52.042;5.648;2022-09-01T11:49:56;4.47;;;1.35;;
25073;SDS011;13066;52.042;5.648;2022-09-01T11:52:27;1.05;;;0.60;;
25073;SDS011;13066;52.042;5.648;2022-09-01T11:55:03;1.40;;;0.80;;
25073;SDS011;13066;52.042;5.648;2022-09-01T11:57:35;5.65;;;1.00;;
25073;SDS011;13066;52.042;5.648;2022-09-01T12:00:07;1.20;;;0.98;;
25073;SDS011;13066;52.042;5.648;2022-09-01T12:02:41;3.72;;;0.63;;
25073;SDS011;13066;52.042;5.648;2022-09-01T12:11:01;1.13;;;0.77;;
25073;SDS011;13066;52.042;5.648;2022-09-01T12:14:27;1.10;;;0.70;;
25073;SDS011;13066;52.042;5.648;2022-09-01T12:17:20;7.32;;;0.82;;
25073;SDS011;13066;52.042;5.648;2022-09-01T12:19:53;1.20;;;0.75;;
25073;SDS011;13066;52.042;5.648;2022-09-01T12:22:27;0.85;;;0.63;;
25073;SDS011;13066;52.042;5.648;2022-09-01T12:24:57;1.15;;;0.70;;
25073;SDS011;13066;52.042;5.648;2022-09-01T12:27:25;1.13;;;0.65;;
25073;SDS011;13066;52.042;5.648;2022-09-01T12:29:55;1.60;;;0.60;;
25073;SDS011;13066;52.042;5.648;2022-09-01T12:32:25;0.98;;;0.70;;
25073;SDS011;13066;52.042;5.648;2022-09-01T12:34:59;2.75;;;0.70;;
25073;SDS011;13066;52.042;5.648;2022-09-01T12:37:36;1.55;;;0.75;;
25073;SDS011;13066;52.042;5.648;2022-09-01T12:40:20;6.88;;;0.90;;
25073;SDS011;13066;52.042;5.648;2022-09-01T12:42:51;2.30;;;0.93;;
25073;SDS011;13066;52.042;5.648;2022-09-01T12:45:37;1.30;;;0.60;;
25073;SDS011;13066;52.042;5.648;2022-09-01T12:48:21;3.95;;;0.68;;
25073;SDS011;13066;52.042;5.648;2022-09-01T12:50:58;1.05;;;0.63;;
25073;SDS011;13066;52.042;5.648;2022-09-01T12:53:30;1.25;;;0.68;;
25073;SDS011;13066;52.042;5.648;2022-09-01T12:56:03;5.50;;;0.98;;
25073;SDS011;13066;52.042;5.648;2022-09-01T12:58:47;3.45;;;0.80;;
25073;SDS011;13066;52.042;5.648;2022-09-01T13:01:24;2.15;;;0.95;;
25073;SDS011;13066;52.042;5.648;2022-09-01T13:06:58;2.42;;;0.70;;
25073;SDS011;13066;52.042;5.648;2022-09-01T13:12:10;3.20;;;0.75;;
25073;SDS011;13066;52.042;5.648;2022-09-01T13:14:43;1.30;;;0.80;;
25073;SDS011;13066;52.042;5.648;2022-09-01T13:17:12;2.03;;;0.90;;
25073;SDS011;13066;52.042;5.648;2022-09-01T13:19:41;0.98;;;0.77;;
25073;SDS011;13066;52.042;5.648;2022-09-01T13:22:09;1.23;;;0.82;;
25073;SDS011;13066;52.042;5.648;2022-09-01T13:24:39;3.42;;;0.73;;
25073;SDS011;13066;52.042;5.648;2022-09-01T13:27:07;2.50;;;1.08;;
25073;SDS011;13066;52.042;5.648;2022-09-01T13:29:47;1.95;;;0.68;;
25073;SDS011;13066;52.042;5.648;2022-09-01T13:32:20;2.15;;;1.08;;
25073;SDS011;13066;52.042;5.648;2022-09-01T13:34:50;2.20;;;0.93;;
25073;SDS011;13066;52.042;5.648;2022-09-01T13:37:20;2.75;;;0.70;;
25073;SDS011;13066;52.042;5.648;2022-09-01T13:39:56;2.92;;;1.05;;
25073;SDS011;13066;52.042;5.648;2022-09-01T13:42:24;2.67;;;1.00;;
25073;SDS011;13066;52.042;5.648;2022-09-01T13:44:54;1.50;;;0.70;;
25073;SDS011;13066;52.042;5.648;2022-09-01T13:47:26;4.43;;;0.85;;
25073;SDS011;13066;52.042;5.648;2022-09-01T13:49:56;5.90;;;0.82;;
25073;SDS011;13066;52.042;5.648;2022-09-01T13:52:36;0.93;;;0.82;;
25073;SDS011;13066;52.042;5.648;2022-09-01T13:55:05;3.20;;;0.70;;
25073;SDS011;13066;52.042;5.648;2022-09-01T13:57:34;7.88;;;1.05;;
25073;SDS011;13066;52.042;5.648;2022-09-01T14:00:03;1.25;;;1.05;;
25073;SDS011;13066;52.042;5.648;2022-09-01T14:02:37;3.90;;;0.85;;
25073;SDS011;13066;52.042;5.648;2022-09-01T14:05:08;0.65;;;0.50;;
25073;SDS011;13066;52.042;5.648;2022-09-01T14:07:36;4.88;;;0.93;;
25073;SDS011;13066;52.042;5.648;2022-09-01T14:10:04;2.15;;;1.08;;
25073;SDS011;13066;52.042;5.648;2022-09-01T14:12:34;1.63;;;0.90;;
25073;SDS011;13066;52.042;5.648;2022-09-01T14:15:03;3.85;;;0.73;;
25073;SDS011;13066;52.042;5.648;2022-09-01T14:17:44;10.18;;;0.82;;
25073;SDS011;13066;52.042;5.648;2022-09-01T14:20:14;2.53;;;0.80;;
25073;SDS011;13066;52.042;5.648;2022-09-01T14:22:44;2.13;;;0.98;;
25073;SDS011;13066;52.042;5.648;2022-09-01T14:25:18;2.72;;;0.93;;
25073;SDS011;13066;52.042;5.648;2022-09-01T14:27:50;1.52;;;0.73;;
25073;SDS011;13066;52.042;5.648;2022-09-01T14:30:20;3.00;;;0.80;;
25073;SDS011;13066;52.042;5.648;2022-09-01T14:32:57;5.53;;;0.93;;
25073;SDS011;13066;52.042;5.648;2022-09-01T14:35:26;7.22;;;1.13;;
25073;SDS011;13066;52.042;5.648;2022-09-01T14:37:59;1.92;;;0.98;;
25073;SDS011;13066;52.042;5.648;2022-09-01T14:40:30;3.70;;;0.85;;
25073;SDS011;13066;52.042;5.648;2022-09-01T14:42:59;3.65;;;0.85;;
25073;SDS011;13066;52.042;5.648;2022-09-01T14:45:27;2.88;;;1.05;;
25073;SDS011;13066;52.042;5.648;2022-09-01T14:47:56;2.97;;;1.00;;
25073;SDS011;13066;52.042;5.648;2022-09-01T14:50:42;4.80;;;0.90;;
25073;SDS011;13066;52.042;5.648;2022-09-01T14:53:14;9.90;;;1.40;;
25073;SDS011;13066;52.042;5.648;2022-09-01T14:55:45;2.80;;;0.80;;
25073;SDS011;13066;52.042;5.648;2022-09-01T14:58:16;2.58;;;0.90;;
25073;SDS011;13066;52.042;5.648;2022-09-01T15:00:45;3.22;;;0.80;;
25073;SDS011;13066;52.042;5.648;2022-09-01T15:03:13;1.98;;;1.02;;
25073;SDS011;13066;52.042;5.648;2022-09-01T15:05:51;1.90;;;0.95;;
25073;SDS011;13066;52.042;5.648;2022-09-01T15:10:51;5.53;;;1.00;;
25073;SDS011;13066;52.042;5.648;2022-09-01T15:13:22;1.40;;;1.25;;
25073;SDS011;13066;52.042;5.648;2022-09-01T15:15:56;10.05;;;0.90;;
25073;SDS011;13066;52.042;5.648;2022-09-01T15:18:25;2.80;;;0.98;;
25073;SDS011;13066;52.042;5.648;2022-09-01T15:20:55;1.30;;;0.90;;
25073;SDS011;13066;52.042;5.648;2022-09-01T15:23:31;6.65;;;0.88;;
25073;SDS011;13066;52.042;5.648;2022-09-01T15:25:59;5.63;;;0.75;;
25073;SDS011;13066;52.042;5.648;2022-09-01T15:28:27;5.60;;;0.82;;
25073;SDS011;13066;52.042;5.648;2022-09-01T15:30:55;1.88;;;0.90;;
25073;SDS011;13066;52.042;5.648;2022-09-01T15:33:25;1.42;;;0.68;;
25073;SDS011;13066;52.042;5.648;2022-09-01T15:35:54;4.00;;;1.10;;
25073;SDS011;13066;52.042;5.648;2022-09-01T15:38:22;0.95;;;0.77;;
25073;SDS011;13066;52.042;5.648;2022-09-01T15:40:55;2.30;;;0.70;;
25073;SDS011;13066;52.042;5.648;2022-09-01T15:43:27;0.85;;;0.73;;
25073;SDS011;13066;52.042;5.648;2022-09-01T15:45:55;3.10;;;1.25;;
25073;SDS011;13066;52.042;5.648;2022-09-01T15:48:25;2.08;;;0.63;;
25073;SDS011;13066;52.042;5.648;2022-09-01T15:50:57;1.08;;;0.88;;
25073;SDS011;13066;52.042;5.648;2022-09-01T15:53:42;3.03;;;1.15;;
25073;SDS011;13066;52.042;5.648;2022-09-01T15:56:10;3.88;;;1.40;;
25073;SDS011;13066;52.042;5.648;2022-09-01T15:58:38;4.05;;;1.08;;
25073;SDS011;13066;52.042;5.648;2022-09-01T16:01:27;2.72;;;1.20;;
25073;SDS011;13066;52.042;5.648;2022-09-01T16:03:57;1.48;;;1.00;;
25073;SDS011;13066;52.042;5.648;2022-09-01T16:06:27;4.38;;;1.00;;
25073;SDS011;13066;52.042;5.648;2022-09-01T16:08:56;3.38;;;0.88;;
25073;SDS011;13066;52.042;5.648;2022-09-01T16:11:24;3.92;;;1.48;;
25073;SDS011;13066;52.042;5.648;2022-09-01T16:13:53;0.60;;;0.60;;
25073;SDS011;13066;52.042;5.648;2022-09-01T16:16:28;1.58;;;0.80;;
25073;SDS011;13066;52.042;5.648;2022-09-01T16:19:12;5.18;;;1.08;;
25073;SDS011;13066;52.042;5.648;2022-09-01T16:21:53;4.55;;;0.90;;
25073;SDS011;13066;52.042;5.648;2022-09-01T16:24:31;1.65;;;0.63;;
25073;SDS011;13066;52.042;5.648;2022-09-01T16:27:07;2.90;;;0.90;;
25073;SDS011;13066;52.042;5.648;2022-09-01T16:29:39;1.35;;;0.98;;
25073;SDS011;13066;52.042;5.648;2022-09-01T16:32:12;2.80;;;1.00;;
25073;SDS011;13066;52.042;5.648;2022-09-01T16:34:41;2.67;;;1.02;;
25073;SDS011;13066;52.042;5.648;2022-09-01T16:40:10;6.72;;;0.90;;
25073;SDS011;13066;52.042;5.648;2022-09-01T16:42:46;1.70;;;1.23;;
25073;SDS011;13066;52.042;5.648;2022-09-01T16:45:26;3.10;;;0.85;;
25073;SDS011;13066;52.042;5.648;2022-09-01T16:48:10;2.25;;;1.08;;
25073;SDS011;13066;52.042;5.648;2022-09-01T16:50:46;6.03;;;1.20;;
25073;SDS011;13066;52.042;5.648;2022-09-01T16:53:30;2.10;;;1.20;;
25073;SDS011;13066;52.042;5.648;2022-09-01T16:56:10;0.90;;;0.90;;
25073;SDS011;13066;52.042;5.648;2022-09-01T16:58:47;3.03;;;1.02;;
25073;SDS011;13066;52.042;5.648;2022-09-01T17:01:30;2.63;;;1.17;;
25073;SDS011;13066;52.042;5.648;2022-09-01T17:04:14;3.50;;;0.90;;
25073;SDS011;13066;52.042;5.648;2022-09-01T17:06:55;3.08;;;1.40;;
25073;SDS011;13066;52.042;5.648;2022-09-01T17:09:39;1.10;;;1.00;;
25073;SDS011;13066;52.042;5.648;2022-09-01T17:12:21;2.92;;;1.23;;
25073;SDS011;13066;52.042;5.648;2022-09-01T17:14:56;4.03;;;1.65;;
25073;SDS011;13066;52.042;5.648;2022-09-01T17:17:30;3.38;;;1.17;;
25073;SDS011;13066;52.042;5.648;2022-09-01T17:20:03;3.42;;;1.00;;
25073;SDS011;13066;52.042;5.648;2022-09-01T17:22:36;5.03;;;1.10;;
25073;SDS011;13066;52.042;5.648;2022-09-01T17:25:14;6.32;;;0.93;;
25073;SDS011;13066;52.042;5.648;2022-09-01T17:27:57;2.42;;;1.33;;
25073;SDS011;13066;52.042;5.648;2022-09-01T17:30:28;6.38;;;0.95;;